Time;durP1;ratioP1;P1;durP2;ratioP2;P2;SDS_P1;SDS_P2;PMS_P1;PMS_P2;Temp;Humidity;BMP_temperature;BMP_pressure;BME280_temperature;BME280_humidity;BME280_pressure;Samples;Min_cycle;Max_cycle;Signal;HPM_P1;HPM_P2
2024/01/24 00:01:14;;;;;;;17.60;2.45;;;;;;;;;;5029976;28;20036;-82
2024/01/24 00:03:40;;;;;;;16.73;2.92;;;;;;;;;;5036543;28;20388;-82
2024/01/24 00:06:06;;;;;;;16.20;2.75;;;;;;;;;;5049926;28;20021;-81
2024/01/24 00:08:33;;;;;;;20.33;3.25;;;;;;;;;;5047165;28;20279;-82
2024/01/24 00:11:01;;;;;;;15.02;2.10;;;;;;;;;;5031507;28;20017;-81
2024/01/24 00:13:27;;;;;;;16.23;2.28;;;;;;;;;;5033822;28;20040;-81
2024/01/24 00:15:53;;;;;;;22.23;3.00;;;;;;;;;;5050108;28;20082;-81
2024/01/24 00:18:19;;;;;;;19.27;3.05;;;;;;;;;;5049221;28;20415;-82
2024/01/24 00:20:45;;;;;;;18.65;2.50;;;;;;;;;;5029400;28;20071;-81
2024/01/24 00:23:11;;;;;;;21.52;3.35;;;;;;;;;;5030708;28;20071;-81
2024/01/24 00:25:37;;;;;;;15.63;2.88;;;;;;;;;;5048272;28;20029;-81
2024/01/24 00:28:05;;;;;;;13.18;2.10;;;;;;;;;;5050676;28;20120;-81
2024/01/24 00:30:31;;;;;;;17.58;3.30;;;;;;;;;;5033151;28;20029;-81
2024/01/24 00:32:57;;;;;;;17.30;2.70;;;;;;;;;;5029474;28;20409;-81
2024/01/24 00:35:23;;;;;;;20.80;2.65;;;;;;;;;;5044065;28;20021;-81
2024/01/24 00:37:49;;;;;;;13.65;1.92;;;;;;;;;;5049319;28;20009;-81
2024/01/24 00:40:15;;;;;;;15.40;2.17;;;;;;;;;;5036055;28;20018;-81
2024/01/24 00:42:42;;;;;;;17.70;3.55;;;;;;;;;;5030753;28;20019;-81
2024/01/24 00:45:09;;;;;;;19.42;2.60;;;;;;;;;;5041084;28;20021;-81
2024/01/24 00:47:35;;;;;;;15.90;2.85;;;;;;;;;;5050483;28;20096;-82
2024/01/24 00:50:04;;;;;;;19.05;4.65;;;;;;;;;;5038337;28;20533;-82
2024/01/24 00:52:30;;;;;;;13.55;2.53;;;;;;;;;;5028609;28;20021;-81
2024/01/24 00:54:56;;;;;;;21.40;2.90;;;;;;;;;;5039000;28;20048;-81
2024/01/24 00:57:22;;;;;;;18.60;2.42;;;;;;;;;;5048777;28;20017;-81
2024/01/24 00:59:48;;;;;;;14.90;2.70;;;;;;;;;;5040249;28;20112;-81
2024/01/24 01:02:15;;;;;;;14.18;2.97;;;;;;;;;;5029019;28;20052;-81
2024/01/24 01:04:41;;;;;;;14.75;2.40;;;;;;;;;;5029144;28;20013;-81
2024/01/24 01:07:07;;;;;;;15.82;2.60;;;;;;;;;;5028939;28;20028;-81
2024/01/24 01:09:33;;;;;;;20.63;3.50;;;;;;;;;;5034220;28;20017;-81
2024/01/24 01:11:59;;;;;;;15.63;2.50;;;;;;;;;;5048509;28;20024;-81
2024/01/24 01:14:25;;;;;;;14.45;1.63;;;;;;;;;;5044942;28;20013;-82
2024/01/24 01:16:51;;;;;;;15.55;2.30;;;;;;;;;;5029157;28;20014;-82
2024/01/24 01:19:17;;;;;;;10.77;2.25;;;;;;;;;;5030805;28;20013;-82
2024/01/24 01:21:43;;;;;;;14.00;1.92;;;;;;;;;;5048546;28;20017;-82
2024/01/24 01:24:09;;;;;;;17.23;2.35;;;;;;;;;;5048027;28;20472;-81
2024/01/24 01:26:35;;;;;;;10.20;1.80;;;;;;;;;;5029612;28;20028;-82
2024/01/24 01:29:01;;;;;;;13.27;2.75;;;;;;;;;;5029767;28;20037;-81
2024/01/24 01:31:27;;;;;;;14.13;2.10;;;;;;;;;;5047915;28;20389;-81
2024/01/24 01:33:53;;;;;;;10.05;1.95;;;;;;;;;;5048388;28;20615;-82
2024/01/24 01:36:19;;;;;;;10.38;1.83;;;;;;;;;;5031548;28;20456;-82
2024/01/24 01:38:45;;;;;;;11.00;1.63;;;;;;;;;;5028620;28;20009;-81
2024/01/24 01:41:11;;;;;;;11.48;1.52;;;;;;;;;;5045415;28;20056;-81
2024/01/24 01:43:37;;;;;;;13.77;2.35;;;;;;;;;;5049698;28;20327;-81
2024/01/24 01:46:07;;;;;;;14.38;2.50;;;;;;;;;;5034474;28;20022;-81
2024/01/24 01:48:34;;;;;;;10.82;2.25;;;;;;;;;;5030053;28;20014;-81
2024/01/24 01:51:01;;;;;;;15.13;2.30;;;;;;;;;;5042171;28;20021;-81
2024/01/24 01:53:27;;;;;;;21.98;2.90;;;;;;;;;;5047793;28;20033;-81
2024/01/24 01:55:53;;;;;;;16.08;2.45;;;;;;;;;;5048170;28;20462;-81
2024/01/24 01:58:20;;;;;;;10.40;1.75;;;;;;;;;;5048079;28;20020;-81
2024/01/24 02:00:47;;;;;;;10.75;2.20;;;;;;;;;;5037065;28;20045;-81
2024/01/24 02:03:13;;;;;;;14.10;2.58;;;;;;;;;;5028051;28;20473;-81
2024/01/24 02:05:40;;;;;;;16.50;3.28;;;;;;;;;;5038359;28;20028;-81
2024/01/24 02:08:07;;;;;;;15.93;2.58;;;;;;;;;;5048555;28;20052;-81
2024/01/24 02:10:33;;;;;;;14.48;2.70;;;;;;;;;;5040617;28;20469;-81
2024/01/24 02:13:00;;;;;;;17.05;2.85;;;;;;;;;;5029361;28;20425;-81
2024/01/24 02:15:29;;;;;;;15.65;2.03;;;;;;;;;;5035412;28;20010;-81
2024/01/24 02:17:55;;;;;;;10.93;2.33;;;;;;;;;;5047778;28;20013;-81
2024/01/24 02:20:21;;;;;;;17.17;2.92;;;;;;;;;;5041489;28;20101;-82
2024/01/24 02:22:47;;;;;;;16.55;2.45;;;;;;;;;;5028261;28;20470;-80
2024/01/24 02:25:13;;;;;;;12.60;2.28;;;;;;;;;;5032880;28;20027;-82
2024/01/24 02:27:39;;;;;;;11.30;1.88;;;;;;;;;;5048070;28;20024;-82
2024/01/24 02:30:06;;;;;;;10.63;2.80;;;;;;;;;;5045725;28;20056;-82
2024/01/24 02:32:32;;;;;;;13.15;2.03;;;;;;;;;;5029221;28;20026;-81
2024/01/24 02:34:58;;;;;;;12.30;2.20;;;;;;;;;;5028068;28;20052;-82
2024/01/24 02:37:24;;;;;;;15.15;2.40;;;;;;;;;;5029184;28;20454;-82
2024/01/24 02:39:50;;;;;;;16.90;3.22;;;;;;;;;;5032938;28;20017;-81
2024/01/24 02:42:16;;;;;;;18.20;1.90;;;;;;;;;;5049949;28;20023;-82
2024/01/24 02:44:42;;;;;;;14.25;1.80;;;;;;;;;;5051724;28;20010;-81
2024/01/24 02:47:08;;;;;;;12.73;1.80;;;;;;;;;;5035920;28;20022;-81
2024/01/24 02:49:34;;;;;;;15.15;2.33;;;;;;;;;;5031395;28;20050;-81
2024/01/24 02:52:02;;;;;;;13.63;2.60;;;;;;;;;;5047933;28;20354;-81
2024/01/24 02:54:28;;;;;;;22.05;3.33;;;;;;;;;;5051217;28;20013;-81
2024/01/24 02:56:54;;;;;;;17.98;2.30;;;;;;;;;;5037872;28;20568;-81
2024/01/24 02:59:20;;;;;;;22.27;2.70;;;;;;;;;;5032128;28;20017;-81
2024/01/24 03:01:46;;;;;;;20.08;3.45;;;;;;;;;;5043898;28;20043;-81
2024/01/24 03:04:12;;;;;;;24.15;4.28;;;;;;;;;;5051133;28;20013;-81
2024/01/24 03:06:40;;;;;;;13.23;2.35;;;;;;;;;;5039247;28;20551;-81
2024/01/24 03:09:07;;;;;;;20.08;2.88;;;;;;;;;;5031088;28;20068;-81
2024/01/24 03:11:33;;;;;;;15.10;2.28;;;;;;;;;;5032181;28;20018;-81
2024/01/24 03:13:59;;;;;;;21.77;3.38;;;;;;;;;;5030945;28;20029;-81
2024/01/24 03:16:25;;;;;;;16.23;2.40;;;;;;;;;;5040963;28;20473;-81
2024/01/24 03:18:51;;;;;;;21.73;3.38;;;;;;;;;;5052295;28;20013;-81
2024/01/24 03:21:18;;;;;;;19.02;2.88;;;;;;;;;;5051836;28;20013;-81
2024/01/24 03:23:44;;;;;;;12.75;2.72;;;;;;;;;;5051783;28;20028;-81
2024/01/24 03:26:13;;;;;;;16.67;1.80;;;;;;;;;;5044304;28;20485;-81
2024/01/24 03:28:38;;;;;;;9.77;2.45;;;;;;;;;;5030432;28;20052;-81
2024/01/24 03:31:04;;;;;;;19.92;2.90;;;;;;;;;;5035782;28;20017;-82
2024/01/24 03:33:30;;;;;;;15.73;2.67;;;;;;;;;;5051860;28;20025;-81
2024/01/24 03:35:56;;;;;;;17.38;3.13;;;;;;;;;;5046640;28;20064;-82
2024/01/24 03:38:23;;;;;;;15.77;2.88;;;;;;;;;;5030976;28;20043;-82
2024/01/24 03:40:48;;;;;;;19.73;3.13;;;;;;;;;;5033995;28;20009;-81
2024/01/24 03:43:15;;;;;;;19.42;3.63;;;;;;;;;;5050536;28;20443;-81
2024/01/24 03:45:41;;;;;;;20.55;2.92;;;;;;;;;;5048957;28;20017;-81
2024/01/24 03:48:07;;;;;;;20.38;3.25;;;;;;;;;;5030157;28;20021;-81
2024/01/24 03:50:34;;;;;;;22.73;3.30;;;;;;;;;;5031256;28;20013;-81
2024/01/24 03:53:03;;;;;;;19.13;2.92;;;;;;;;;;5048987;28;20497;-81
2024/01/24 03:55:29;;;;;;;13.55;2.45;;;;;;;;;;5049945;28;20020;-81
2024/01/24 03:57:56;;;;;;;19.75;3.08;;;;;;;;;;5032832;28;20492;-82
2024/01/24 04:00:22;;;;;;;26.40;3.10;;;;;;;;;;5031549;28;20048;-81
2024/01/24 04:02:48;;;;;;;22.27;2.90;;;;;;;;;;5045427;28;20112;-82
2024/01/24 04:05:16;;;;;;;21.63;4.03;;;;;;;;;;5051492;28;20032;-81
2024/01/24 04:07:42;;;;;;;20.48;3.13;;;;;;;;;;5035451;28;20139;-81
2024/01/24 04:10:08;;;;;;;20.98;3.00;;;;;;;;;;5030102;28;20005;-81
2024/01/24 04:12:34;;;;;;;19.55;2.83;;;;;;;;;;5040397;28;20025;-81
2024/01/24 04:15:00;;;;;;;21.63;4.00;;;;;;;;;;5050983;28;20062;-81
2024/01/24 04:17:26;;;;;;;12.35;3.53;;;;;;;;;;5041971;28;20443;-81
2024/01/24 04:19:52;;;;;;;23.95;3.13;;;;;;;;;;5031360;28;20010;-81
2024/01/24 04:22:18;;;;;;;29.27;4.72;;;;;;;;;;5038188;28;20024;-81
2024/01/24 04:24:45;;;;;;;29.27;3.22;;;;;;;;;;5050928;28;20025;-81
2024/01/24 04:27:11;;;;;;;22.88;3.88;;;;;;;;;;5043051;28;20036;-81
2024/01/24 04:29:37;;;;;;;24.65;4.38;;;;;;;;;;5030615;28;20057;-81
2024/01/24 04:32:03;;;;;;;24.85;4.25;;;;;;;;;;5034419;28;20017;-81
2024/01/24 04:34:29;;;;;;;25.45;3.53;;;;;;;;;;5049237;28;20029;-81
2024/01/24 04:36:55;;;;;;;27.17;4.43;;;;;;;;;;5046977;28;20013;-81
2024/01/24 04:39:21;;;;;;;28.20;3.63;;;;;;;;;;5029476;28;20015;-81
2024/01/24 04:41:47;;;;;;;24.42;4.63;;;;;;;;;;5031162;28;20049;-81
2024/01/24 04:44:16;;;;;;;23.17;4.10;;;;;;;;;;5049234;28;20009;-81
2024/01/24 04:46:42;;;;;;;29.60;4.72;;;;;;;;;;5049387;28;20492;-81
2024/01/24 04:49:08;;;;;;;29.17;4.53;;;;;;;;;;5029307;28;20120;-81
2024/01/24 04:51:35;;;;;;;23.73;3.95;;;;;;;;;;5029265;28;20021;-81
2024/01/24 04:54:01;;;;;;;35.17;5.75;;;;;;;;;;5048832;28;20036;-81
2024/01/24 04:56:28;;;;;;;33.65;5.95;;;;;;;;;;5048941;28;20035;-81
2024/01/24 04:58:54;;;;;;;32.00;6.00;;;;;;;;;;5032155;28;20020;-81
2024/01/24 05:01:20;;;;;;;26.13;3.53;;;;;;;;;;5028531;28;20014;-81
2024/01/24 05:03:46;;;;;;;32.00;4.45;;;;;;;;;;5047021;28;20029;-81
2024/01/24 05:06:12;;;;;;;33.03;4.40;;;;;;;;;;5048471;28;20024;-81
2024/01/24 05:08:38;;;;;;;40.70;5.65;;;;;;;;;;5034155;28;20486;-81
2024/01/24 05:11:05;;;;;;;33.38;5.53;;;;;;;;;;5028452;28;20071;-81
2024/01/24 05:13:31;;;;;;;35.40;5.57;;;;;;;;;;5044062;28;20033;-81
2024/01/24 05:15:57;;;;;;;35.63;5.82;;;;;;;;;;5049888;28;20065;-81
2024/01/24 05:18:23;;;;;;;32.45;6.20;;;;;;;;;;5035461;28;20021;-81
2024/01/24 05:20:49;;;;;;;33.33;5.72;;;;;;;;;;5030274;28;20036;-81
2024/01/24 05:23:15;;;;;;;35.38;5.18;;;;;;;;;;5039447;28;20380;-81
2024/01/24 05:25:42;;;;;;;37.67;4.97;;;;;;;;;;5049897;28;20013;-82
2024/01/24 05:28:09;;;;;;;30.90;5.22;;;;;;;;;;5041104;28;20038;-82
2024/01/24 05:30:35;;;;;;;34.72;5.18;;;;;;;;;;5028605;28;20041;-81
2024/01/24 05:33:01;;;;;;;34.33;5.22;;;;;;;;;;5029852;28;20026;-81
2024/01/24 05:35:27;;;;;;;33.67;5.45;;;;;;;;;;5028832;28;20010;-83
2024/01/24 05:37:53;;;;;;;39.95;6.82;;;;;;;;;;5035616;28;20074;-79
2024/01/24 05:40:19;;;;;;;39.85;5.72;;;;;;;;;;5048366;28;20013;-81
2024/01/24 05:42:45;;;;;;;38.03;5.85;;;;;;;;;;5043366;28;20032;-80
2024/01/24 05:45:11;;;;;;;32.13;5.25;;;;;;;;;;5029543;28;20040;-80
2024/01/24 05:47:38;;;;;;;35.42;5.05;;;;;;;;;;5032509;28;20013;-81
2024/01/24 05:50:04;;;;;;;28.52;4.70;;;;;;;;;;5049553;28;20414;-80
2024/01/24 05:52:30;;;;;;;46.08;6.70;;;;;;;;;;5047364;28;20485;-81
2024/01/24 05:54:56;;;;;;;33.42;5.47;;;;;;;;;;5029387;28;20013;-80
2024/01/24 05:57:22;;;;;;;40.22;5.85;;;;;;;;;;5034517;28;20109;-81
2024/01/24 05:59:48;;;;;;;38.00;6.88;;;;;;;;;;5045564;28;20017;-81
2024/01/24 06:02:14;;;;;;;34.78;5.65;;;;;;;;;;5047265;28;20013;-81
2024/01/24 06:04:40;;;;;;;26.85;4.68;;;;;;;;;;5046135;28;20520;-81
2024/01/24 06:07:06;;;;;;;39.45;7.13;;;;;;;;;;5049020;28;20013;-81
2024/01/24 06:09:33;;;;;;;33.53;4.93;;;;;;;;;;5045826;28;20013;-81
2024/01/24 06:11:59;;;;;;;37.95;6.25;;;;;;;;;;5048489;28;20020;-80
2024/01/24 06:14:25;;;;;;;37.92;5.78;;;;;;;;;;5048394;28;20021;-80
2024/01/24 06:16:51;;;;;;;40.08;6.10;;;;;;;;;;5051685;28;20027;-81
2024/01/24 06:19:17;;;;;;;40.55;6.40;;;;;;;;;;5050893;28;20041;-80
2024/01/24 06:21:43;;;;;;;40.05;7.05;;;;;;;;;;5051652;28;20272;-81
2024/01/24 06:24:09;;;;;;;38.60;6.38;;;;;;;;;;5040093;28;20025;-82
2024/01/24 06:26:37;;;;;;;34.25;5.63;;;;;;;;;;5031917;28;20032;-82
2024/01/24 06:29:03;;;;;;;35.20;6.10;;;;;;;;;;5041850;28;20119;-80
2024/01/24 06:31:30;;;;;;;32.85;5.53;;;;;;;;;;5053056;28;20017;-79
2024/01/24 06:33:56;;;;;;;36.90;5.20;;;;;;;;;;5044398;28;20449;-81
2024/01/24 06:36:22;;;;;;;35.67;4.93;;;;;;;;;;5032969;28;20470;-80
2024/01/24 06:38:48;;;;;;;45.75;6.47;;;;;;;;;;5038544;28;20497;-81
2024/01/24 06:41:14;;;;;;;35.33;4.85;;;;;;;;;;5051400;28;20024;-81
2024/01/24 06:43:42;;;;;;;29.88;6.15;;;;;;;;;;5048376;28;20022;-78
2024/01/24 06:46:08;;;;;;;29.25;4.53;;;;;;;;;;5051403;28;20013;-82
2024/01/24 06:48:34;;;;;;;34.20;6.60;;;;;;;;;;5050143;28;20023;-80
2024/01/24 06:51:00;;;;;;;31.60;5.32;;;;;;;;;;5031562;28;20024;-80
2024/01/24 06:53:26;;;;;;;36.63;6.07;;;;;;;;;;5038584;28;20124;-80
2024/01/24 06:55:53;;;;;;;37.03;5.28;;;;;;;;;;5050619;28;20108;-81
2024/01/24 06:58:19;;;;;;;36.83;4.90;;;;;;;;;;5045341;28;20386;-81
2024/01/24 07:00:45;;;;;;;35.10;5.97;;;;;;;;;;5049657;28;20528;-80
2024/01/24 07:03:11;;;;;;;27.20;4.22;;;;;;;;;;5050051;28;20021;-81
2024/01/24 07:05:37;;;;;;;34.00;5.20;;;;;;;;;;5050609;28;20013;-81
2024/01/24 07:08:03;;;;;;;39.05;6.05;;;;;;;;;;5049921;28;20017;-81
2024/01/24 07:10:29;;;;;;;29.35;5.78;;;;;;;;;;5035176;28;20560;-80
2024/01/24 07:12:56;;;;;;;33.50;4.72;;;;;;;;;;5030540;28;20116;-80
2024/01/24 07:15:22;;;;;;;30.75;5.13;;;;;;;;;;5045475;28;20009;-80
2024/01/24 07:17:48;;;;;;;37.95;5.90;;;;;;;;;;5050817;28;20028;-81
2024/01/24 07:20:15;;;;;;;35.60;5.68;;;;;;;;;;5049642;28;20028;-80
2024/01/24 07:22:41;;;;;;;33.08;5.43;;;;;;;;;;5048923;28;20009;-80
2024/01/24 07:25:07;;;;;;;28.67;5.20;;;;;;;;;;5038495;28;20071;-80
2024/01/24 07:27:36;;;;;;;41.20;5.65;;;;;;;;;;5048707;28;20013;-80
2024/01/24 07:30:05;;;;;;;39.80;5.07;;;;;;;;;;5046449;28;20079;-80
2024/01/24 07:32:32;;;;;;;41.67;7.25;;;;;;;;;;5034451;28;20033;-80
2024/01/24 07:35:01;;;;;;;38.63;6.40;;;;;;;;;;5044163;28;20017;-80
2024/01/24 07:37:27;;;;;;;40.53;6.27;;;;;;;;;;5051341;28;20067;-80
2024/01/24 07:39:54;;;;;;;32.08;5.60;;;;;;;;;;5046057;28;20104;-80
2024/01/24 07:42:20;;;;;;;30.67;6.00;;;;;;;;;;5051610;28;20044;-80
2024/01/24 07:44:46;;;;;;;45.83;6.30;;;;;;;;;;5046692;28;20388;-80
2024/01/24 07:47:12;;;;;;;29.90;5.55;;;;;;;;;;5051089;28;20025;-80
2024/01/24 07:49:39;;;;;;;46.00;6.13;;;;;;;;;;5046682;28;20014;-80
2024/01/24 07:52:07;;;;;;;48.53;5.88;;;;;;;;;;5030005;28;20018;-80
2024/01/24 07:54:33;;;;;;;31.00;5.30;;;;;;;;;;5033139;28;20385;-80
2024/01/24 07:57:00;;;;;;;33.60;5.72;;;;;;;;;;5036030;28;20203;-80
2024/01/24 07:59:26;;;;;;;34.72;6.07;;;;;;;;;;5045696;28;20018;-80
2024/01/24 08:01:52;;;;;;;53.53;7.07;;;;;;;;;;5047426;28;20358;-80
2024/01/24 08:04:17;;;;;;;40.35;5.63;;;;;;;;;;5045295;28;20049;-81
2024/01/24 08:06:45;;;;;;;41.28;5.82;;;;;;;;;;5046966;28;20115;-80
2024/01/24 08:09:11;;;;;;;26.80;5.78;;;;;;;;;;5049031;28;20527;-80
2024/01/24 08:11:37;;;;;;;34.17;6.35;;;;;;;;;;5034510;28;20033;-80
2024/01/24 08:14:04;;;;;;;34.75;6.43;;;;;;;;;;5041939;28;20025;-80
2024/01/24 08:16:31;;;;;;;41.78;6.53;;;;;;;;;;5049289;28;20035;-81
2024/01/24 08:18:58;;;;;;;43.17;6.35;;;;;;;;;;5036811;28;20068;-80
2024/01/24 08:21:24;;;;;;;43.03;7.57;;;;;;;;;;5034019;28;20017;-80
2024/01/24 08:23:50;;;;;;;36.33;7.55;;;;;;;;;;5037712;28;20029;-80
2024/01/24 08:26:17;;;;;;;31.92;5.15;;;;;;;;;;5045878;28;20019;-80
2024/01/24 08:28:43;;;;;;;35.45;6.28;;;;;;;;;;5043120;28;20037;-80
2024/01/24 08:31:10;;;;;;;40.30;6.50;;;;;;;;;;5042928;28;20017;-80
2024/01/24 08:33:36;;;;;;;39.00;5.57;;;;;;;;;;5047948;28;20020;-80
2024/01/24 08:36:02;;;;;;;43.08;6.25;;;;;;;;;;5040541;28;20025;-80
2024/01/24 08:38:30;;;;;;;37.42;5.30;;;;;;;;;;5044239;28;20021;-80
2024/01/24 08:40:56;;;;;;;42.00;6.70;;;;;;;;;;5037024;28;20044;-80
2024/01/24 08:43:22;;;;;;;36.58;6.75;;;;;;;;;;5030007;28;20087;-80
2024/01/24 08:45:50;;;;;;;40.63;6.75;;;;;;;;;;5032698;28;20055;-80
2024/01/24 08:48:17;;;;;;;35.40;6.90;;;;;;;;;;5042358;28;20038;-80
2024/01/24 08:50:43;;;;;;;40.17;6.93;;;;;;;;;;5043603;28;20402;-79
2024/01/24 08:53:09;;;;;;;35.90;6.45;;;;;;;;;;5046677;28;20025;-79
2024/01/24 08:55:35;;;;;;;30.90;5.22;;;;;;;;;;5041341;28;20090;-80
2024/01/24 08:58:01;;;;;;;31.90;6.35;;;;;;;;;;5039813;28;20365;-80
2024/01/24 09:00:27;;;;;;;29.13;5.70;;;;;;;;;;5045555;28;20044;-79
2024/01/24 09:02:53;;;;;;;32.53;5.45;;;;;;;;;;5036970;28;20029;-80
2024/01/24 09:05:20;;;;;;;32.65;5.40;;;;;;;;;;5039598;28;20408;-80
2024/01/24 09:07:47;;;;;;;32.20;4.72;;;;;;;;;;5040579;28;20385;-80
2024/01/24 09:10:13;;;;;;;40.00;5.82;;;;;;;;;;5040600;28;20017;-80
2024/01/24 09:12:39;;;;;;;33.83;6.63;;;;;;;;;;5038650;28;20063;-80
2024/01/24 09:15:05;;;;;;;32.72;6.68;;;;;;;;;;5040057;28;20072;-80
2024/01/24 09:17:33;;;;;;;42.22;8.00;;;;;;;;;;5037155;28;20124;-80
2024/01/24 09:19:59;;;;;;;36.00;5.13;;;;;;;;;;5034309;28;20072;-80
2024/01/24 09:22:25;;;;;;;38.55;5.90;;;;;;;;;;5032428;28;20041;-80
2024/01/24 09:24:51;;;;;;;37.50;6.72;;;;;;;;;;5039279;28;20017;-80
2024/01/24 09:27:17;;;;;;;31.73;6.75;;;;;;;;;;5045973;28;20024;-80
2024/01/24 09:29:43;;;;;;;36.90;5.82;;;;;;;;;;5047186;28;20048;-80
2024/01/24 09:32:09;;;;;;;34.90;5.60;;;;;;;;;;5040235;28;20025;-80
2024/01/24 09:34:35;;;;;;;36.55;5.43;;;;;;;;;;5026624;28;20116;-80
2024/01/24 09:37:01;;;;;;;33.65;4.95;;;;;;;;;;5031463;28;20489;-80
2024/01/24 09:39:27;;;;;;;35.25;5.65;;;;;;;;;;5046352;28;20105;-80
2024/01/24 09:41:54;;;;;;;39.22;5.93;;;;;;;;;;5042629;28;20017;-80
2024/01/24 09:44:20;;;;;;;33.45;6.50;;;;;;;;;;5027279;28;20097;-80
2024/01/24 09:46:48;;;;;;;37.70;5.85;;;;;;;;;;5029718;28;20021;-80
2024/01/24 09:49:15;;;;;;;37.45;5.78;;;;;;;;;;5051797;28;20091;-80
2024/01/24 09:51:41;;;;;;;30.85;7.05;;;;;;;;;;5050693;28;20009;-80
2024/01/24 09:54:08;;;;;;;28.45;5.15;;;;;;;;;;5031748;28;20029;-80
2024/01/24 09:56:37;;;;;;;31.67;5.53;;;;;;;;;;5036148;28;20009;-80
2024/01/24 09:59:04;;;;;;;30.70;5.57;;;;;;;;;;5032128;28;20010;-80
2024/01/24 10:01:31;;;;;;;25.83;4.80;;;;;;;;;;5038417;28;20494;-80
2024/01/24 10:03:59;;;;;;;40.45;5.65;;;;;;;;;;5033427;28;20022;-80
2024/01/24 10:06:26;;;;;;;37.28;5.70;;;;;;;;;;5031934;28;20380;-79
2024/01/24 10:08:52;;;;;;;32.33;4.80;;;;;;;;;;5048150;28;20104;-80
2024/01/24 10:11:18;;;;;;;30.90;5.20;;;;;;;;;;5050718;28;20016;-80
2024/01/24 10:13:44;;;;;;;24.77;5.18;;;;;;;;;;5033666;28;20029;-80
2024/01/24 10:16:10;;;;;;;30.77;4.60;;;;;;;;;;5032116;28;20060;-80
2024/01/24 10:18:36;;;;;;;34.08;5.05;;;;;;;;;;5043026;28;20476;-79
2024/01/24 10:21:04;;;;;;;32.90;5.38;;;;;;;;;;5050806;28;20037;-80
2024/01/24 10:23:30;;;;;;;23.73;4.47;;;;;;;;;;5044506;28;20009;-80
2024/01/24 10:25:57;;;;;;;35.10;5.13;;;;;;;;;;5046645;28;20054;-80
2024/01/24 10:28:23;;;;;;;38.38;5.15;;;;;;;;;;5050040;28;20037;-80
2024/01/24 10:30:49;;;;;;;36.80;5.95;;;;;;;;;;5051714;28;20028;-80
2024/01/24 10:33:16;;;;;;;37.80;5.00;;;;;;;;;;5049545;28;20021;-80
2024/01/24 10:35:45;;;;;;;30.80;5.38;;;;;;;;;;5049986;28;20016;-80
2024/01/24 10:38:12;;;;;;;33.35;5.57;;;;;;;;;;5043950;28;20029;-79
2024/01/24 10:40:41;;;;;;;32.00;5.45;;;;;;;;;;5030172;28;20028;-79
2024/01/24 10:43:14;;;;;;;33.33;4.80;;;;;;;;;;5036736;28;20420;-79
2024/01/24 10:45:44;;;;;;;28.75;4.40;;;;;;;;;;5047765;28;20013;-80
2024/01/24 10:48:11;;;;;;;27.23;4.75;;;;;;;;;;5049382;28;20017;-80
2024/01/24 10:50:38;;;;;;;32.22;4.80;;;;;;;;;;5047833;28;20047;-79
2024/01/24 10:53:04;;;;;;;38.42;6.05;;;;;;;;;;5046226;28;20029;-80
2024/01/24 10:55:31;;;;;;;35.67;4.90;;;;;;;;;;5047463;28;20017;-80
2024/01/24 10:57:57;;;;;;;38.85;6.07;;;;;;;;;;5045339;28;20052;-80
2024/01/24 11:00:25;;;;;;;24.63;4.45;;;;;;;;;;5041810;28;20186;-80
2024/01/24 11:02:54;;;;;;;35.88;6.72;;;;;;;;;;5049505;28;20074;-80
2024/01/24 11:05:25;;;;;;;34.78;5.25;;;;;;;;;;5049729;28;20029;-80
2024/01/24 11:07:51;;;;;;;;;;;;;;;;;;5047477;28;20374;-80
2024/01/24 11:10:21;;;;;;;34.83;4.93;;;;;;;;;;5029736;28;19992;-80
2024/01/24 11:12:47;;;;;;;29.67;4.90;;;;;;;;;;5032792;28;20022;-80
2024/01/24 11:15:13;;;;;;;39.33;5.40;;;;;;;;;;5049903;28;20017;-80
2024/01/24 11:17:41;;;;;;;32.42;5.68;;;;;;;;;;5040162;28;20013;-80
2024/01/24 11:20:09;;;;;;;35.00;6.00;;;;;;;;;;5038832;28;20476;-80
2024/01/24 11:22:36;;;;;;;31.88;5.65;;;;;;;;;;5048967;28;20246;-80
2024/01/24 11:25:02;;;;;;;31.20;5.30;;;;;;;;;;5038664;28;20021;-80
2024/01/24 11:27:32;;;;;;;32.38;5.45;;;;;;;;;;5050215;28;20059;-80
2024/01/24 11:29:59;;;;;;;32.28;5.60;;;;;;;;;;5032219;28;20095;-80
2024/01/24 11:32:44;;;;;;;30.35;4.38;;;;;;;;;;5028941;28;20473;-80
2024/01/24 11:35:26;;;;;;;21.35;3.85;;;;;;;;;;5049579;28;20449;-80
2024/01/24 11:37:54;;;;;;;23.45;4.20;;;;;;;;;;5049996;28;20048;-80
2024/01/24 11:40:22;;;;;;;25.80;4.10;;;;;;;;;;5040145;28;20484;-80
2024/01/24 11:42:54;;;;;;;34.05;4.93;;;;;;;;;;5049998;28;20364;-80
2024/01/24 11:45:22;;;;;;;22.80;4.20;;;;;;;;;;5038852;28;20478;-80
2024/01/24 11:47:48;;;;;;;31.58;5.15;;;;;;;;;;5029510;28;20469;-80
2024/01/24 11:50:14;;;;;;;21.75;3.45;;;;;;;;;;5039968;28;20525;-80
2024/01/24 11:52:41;;;;;;;28.45;3.92;;;;;;;;;;5029284;28;20021;-80
2024/01/24 11:55:07;;;;;;;28.00;4.72;;;;;;;;;;5046207;28;20031;-80
2024/01/24 11:57:34;;;;;;;27.83;4.45;;;;;;;;;;5048486;28;20024;-80
2024/01/24 12:00:00;;;;;;;23.65;3.72;;;;;;;;;;5032425;28;20410;-79
2024/01/24 12:02:26;;;;;;;29.83;5.13;;;;;;;;;;5028834;28;20602;-79
2024/01/24 12:04:52;;;;;;;29.30;5.55;;;;;;;;;;5028783;28;20025;-79
2024/01/24 12:07:18;;;;;;;26.35;4.97;;;;;;;;;;5030114;28;20013;-79
2024/01/24 12:09:44;;;;;;;31.08;4.75;;;;;;;;;;5034131;28;20017;-79
2024/01/24 12:12:11;;;;;;;31.27;4.93;;;;;;;;;;5035870;28;20041;-79
2024/01/24 12:14:37;;;;;;;24.23;4.20;;;;;;;;;;5037392;28;20444;-79
2024/01/24 12:17:07;;;;;;;22.70;4.03;;;;;;;;;;5033839;28;20005;-79
2024/01/24 12:19:34;;;;;;;25.85;3.72;;;;;;;;;;5034545;28;20561;-80
2024/01/24 12:22:00;;;;;;;26.00;3.75;;;;;;;;;;5039630;28;20022;-80
2024/01/24 12:24:29;;;;;;;23.17;4.18;;;;;;;;;;5035151;28;20501;-80
2024/01/24 12:26:55;;;;;;;29.58;5.38;;;;;;;;;;5037748;28;20032;-80
2024/01/24 12:29:21;;;;;;;22.67;3.95;;;;;;;;;;5035205;28;20136;-79
2024/01/24 12:31:50;;;;;;;32.65;4.47;;;;;;;;;;5042191;28;20409;-79
2024/01/24 12:34:16;;;;;;;27.50;4.00;;;;;;;;;;5035586;28;20102;-80
2024/01/24 12:36:45;;;;;;;28.80;4.72;;;;;;;;;;5038425;28;20043;-80
2024/01/24 12:39:11;;;;;;;31.60;5.72;;;;;;;;;;5035410;28;20101;-80
2024/01/24 12:41:41;;;;;;;30.55;4.38;;;;;;;;;;5034894;28;20078;-80
2024/01/24 12:44:09;;;;;;;24.80;4.40;;;;;;;;;;5037616;28;20632;-80
2024/01/24 12:46:38;;;;;;;24.48;4.13;;;;;;;;;;5035491;28;20334;-80
2024/01/24 12:49:04;;;;;;;26.77;4.15;;;;;;;;;;5032299;28;20010;-80
2024/01/24 12:51:31;;;;;;;27.50;4.80;;;;;;;;;;5039570;28;20040;-80
2024/01/24 12:53:57;;;;;;;22.08;3.83;;;;;;;;;;5036281;28;20552;-80
2024/01/24 12:56:23;;;;;;;25.27;4.13;;;;;;;;;;5042068;28;20028;-80
2024/01/24 12:58:50;;;;;;;28.95;5.10;;;;;;;;;;5044583;28;20028;-79
2024/01/24 13:01:16;;;;;;;29.25;4.88;;;;;;;;;;5043948;28;20072;-80
2024/01/24 13:03:42;;;;;;;28.98;4.28;;;;;;;;;;5046693;28;20083;-80
2024/01/24 13:06:08;;;;;;;29.73;4.22;;;;;;;;;;5031911;28;20021;-79
2024/01/24 13:08:34;;;;;;;32.47;5.40;;;;;;;;;;5029085;28;20071;-80
2024/01/24 13:11:00;;;;;;;32.70;5.10;;;;;;;;;;5042698;28;20037;-80
2024/01/24 13:13:26;;;;;;;29.23;5.20;;;;;;;;;;5048912;28;20117;-79
2024/01/24 13:15:53;;;;;;;22.05;4.10;;;;;;;;;;5035468;28;20080;-80
2024/01/24 13:18:19;;;;;;;23.23;4.35;;;;;;;;;;5027716;28;20026;-80
2024/01/24 13:20:45;;;;;;;30.15;4.57;;;;;;;;;;5038232;28;20025;-78
2024/01/24 13:23:11;;;;;;;30.15;5.05;;;;;;;;;;5048986;28;20063;-80
2024/01/24 13:25:37;;;;;;;32.08;6.00;;;;;;;;;;5045275;28;20477;-81
2024/01/24 13:28:03;;;;;;;30.02;4.43;;;;;;;;;;5048665;28;20071;-80
2024/01/24 13:30:29;;;;;;;31.70;4.70;;;;;;;;;;5041035;28;20025;-80
2024/01/24 13:32:55;;;;;;;27.88;4.35;;;;;;;;;;5029568;28;20030;-80
2024/01/24 13:35:21;;;;;;;27.13;4.88;;;;;;;;;;5031444;28;20017;-80
2024/01/24 13:37:47;;;;;;;26.08;3.78;;;;;;;;;;5047727;28;20040;-81
2024/01/24 13:40:13;;;;;;;24.42;5.05;;;;;;;;;;5046192;28;20028;-80
2024/01/24 13:42:39;;;;;;;34.00;4.53;;;;;;;;;;5048023;28;20013;-80
2024/01/24 13:45:05;;;;;;;26.75;4.70;;;;;;;;;;5041357;28;20028;-80
2024/01/24 13:47:31;;;;;;;29.92;4.65;;;;;;;;;;5036204;28;20524;-80
2024/01/24 13:49:57;;;;;;;28.83;5.13;;;;;;;;;;5043970;28;20025;-79
2024/01/24 13:52:23;;;;;;;30.25;4.95;;;;;;;;;;5043454;28;20578;-79
2024/01/24 13:54:49;;;;;;;25.38;4.63;;;;;;;;;;5043985;28;20025;-79
2024/01/24 13:57:15;;;;;;;30.02;5.47;;;;;;;;;;5038871;28;20025;-79
2024/01/24 13:59:41;;;;;;;31.45;5.30;;;;;;;;;;5045470;28;20377;-79
2024/01/24 14:02:08;;;;;;;31.60;5.05;;;;;;;;;;5044238;28;20013;-81
2024/01/24 14:04:34;;;;;;;26.27;4.07;;;;;;;;;;5036469;28;20075;-80
2024/01/24 14:07:01;;;;;;;32.10;4.80;;;;;;;;;;5044568;28;20497;-81
2024/01/24 14:09:27;;;;;;;31.40;4.70;;;;;;;;;;5040545;28;20013;-84
2024/01/24 14:11:54;;;;;;;30.60;4.72;;;;;;;;;;5038217;28;20136;-82
2024/01/24 14:14:20;;;;;;;30.83;4.97;;;;;;;;;;5042061;28;20028;-82
2024/01/24 14:16:46;;;;;;;32.50;4.32;;;;;;;;;;5043291;28;20147;-81
2024/01/24 14:19:12;;;;;;;26.80;4.22;;;;;;;;;;5046942;28;20111;-82
2024/01/24 14:21:38;;;;;;;26.27;4.95;;;;;;;;;;5044316;28;20085;-82
2024/01/24 14:24:04;;;;;;;35.60;5.38;;;;;;;;;;5048738;28;20241;-82
2024/01/24 14:26:30;;;;;;;30.95;4.53;;;;;;;;;;5046851;28;20014;-82